Time;durP1;ratioP1;P1;durP2;ratioP2;P2;SDS_P1;SDS_P2;PMS_P1;PMS_P2;Temp;Humidity;BMP_temperature;BMP_pressure;BME280_temperature;BME280_humidity;BME280_pressure;Samples;Min_cycle;Max_cycle;Signal;HPM_P1;HPM_P2
2021/10/05 00:00:34;;;;;;;11.30;10.10;;;;;;;13.37;73.25;95557.81;5076212;28;20795;-80
2021/10/05 00:03:01;;;;;;;11.80;9.90;;;;;;;13.37;73.08;95557.81;5041221;28;20432;-80
2021/10/05 00:05:30;;;;;;;10.80;9.83;;;;;;;13.43;72.99;95560.75;5041302;28;20444;-80
2021/10/05 00:07:57;;;;;;;14.70;9.10;;;;;;;13.46;72.88;95560.50;5076014;28;20453;-80
2021/10/05 00:10:24;;;;;;;12.50;9.70;;;;;;;13.43;73.07;95558.13;5075989;28;20448;-80
2021/10/05 00:12:52;;;;;;;16.17;10.27;;;;;;;13.43;73.46;95560.75;5075740;28;20913;-79
2021/10/05 00:15:20;;;;;;;15.10;9.93;;;;;;;13.46;72.78;95557.84;5076265;28;20437;-80
2021/10/05 00:17:48;;;;;;;12.47;10.97;;;;;;;13.37;73.47;95555.19;5075962;28;20459;-80
2021/10/05 00:20:15;;;;;;;12.93;10.60;;;;;;;13.35;73.54;95557.94;5076239;28;20441;-80
2021/10/05 00:25:26;;;;;;;14.30;11.50;;;;;;;13.20;73.44;95544.25;5033806;28;20450;-79
2021/10/05 00:27:53;;;;;;;16.27;10.80;;;;;;;13.18;73.98;95545.34;5032926;28;20482;-79
2021/10/05 00:30:23;;;;;;;13.63;11.00;;;;;;;13.10;73.93;95553.88;5033556;28;20486;-80
2021/10/05 00:32:50;;;;;;;16.50;11.67;;;;;;;13.05;74.62;95553.44;5033181;28;20633;-79
2021/10/05 00:35:16;;;;;;;11.83;9.00;;;;;;;13.08;74.03;95554.97;4984085;28;20946;-79
2021/10/05 00:37:45;;;;;;;12.43;10.57;;;;;;;12.86;75.55;95550.66;5000479;28;20461;-79
2021/10/05 00:40:12;;;;;;;12.40;10.13;;;;;;;12.78;75.58;95555.75;5032298;28;21066;-79
2021/10/05 00:42:39;;;;;;;16.03;11.30;;;;;;;12.69;75.96;95552.03;5032112;28;20534;-80
2021/10/05 00:45:08;;;;;;;12.87;10.57;;;;;;;12.64;76.04;95541.91;5032360;28;20441;-78
2021/10/05 00:47:35;;;;;;;11.00;9.90;;;;;;;12.62;76.07;95543.81;5032094;28;20434;-80
2021/10/05 00:50:02;;;;;;;11.20;10.00;;;;;;;12.61;76.29;95551.84;5032201;28;20449;-80
2021/10/05 00:52:29;;;;;;;14.60;10.83;;;;;;;12.64;76.78;95546.31;5031876;28;20454;-79
2021/10/05 00:54:57;;;;;;;13.67;10.60;;;;;;;12.63;76.18;95545.50;5031470;28;20459;-80
2021/10/05 00:57:24;;;;;;;12.67;10.53;;;;;;;12.63;75.44;95544.66;5035249;28;20436;-80
2021/10/05 00:59:52;;;;;;;12.20;9.57;;;;;;;12.63;75.47;95547.28;5038470;28;20485;-79
2021/10/05 01:02:19;;;;;;;16.10;10.93;;;;;;;12.55;76.72;95540.03;5074516;28;20452;-80
2021/10/05 01:04:46;;;;;;;16.60;11.30;;;;;;;12.56;75.66;95548.75;5055254;28;20434;-79
2021/10/05 01:07:15;;;;;;;11.70;10.50;;;;;;;12.41;76.58;95548.22;5074381;28;21096;-80
2021/10/05 01:09:43;;;;;;;11.07;9.87;;;;;;;12.37;77.09;95541.53;5073622;28;20536;-80
2021/10/05 01:12:12;;;;;;;12.70;10.80;;;;;;;12.43;75.78;95543.66;5073715;28;21003;-79
2021/10/05 01:14:40;;;;;;;13.77;9.70;;;;;;;12.35;77.19;95531.13;5038481;28;20811;-79
2021/10/05 01:17:07;;;;;;;12.43;10.07;;;;;;;12.34;76.27;95529.44;5038457;28;20453;-79
2021/10/05 01:19:35;;;;;;;14.17;10.67;;;;;;;12.37;76.79;95523.94;5073457;28;20489;-79
2021/10/05 01:22:04;;;;;;;15.53;12.13;;;;;;;12.34;75.70;95526.81;5055085;28;20434;-80
2021/10/05 01:24:31;;;;;;;16.63;11.17;;;;;;;12.40;76.28;95523.69;5073731;28;20451;-79
2021/10/05 01:26:59;;;;;;;14.00;10.40;;;;;;;12.41;76.15;95520.09;5073239;28;20456;-79
2021/10/05 01:29:27;;;;;;;13.87;9.73;;;;;;;12.46;76.29;95522.38;5073379;28;20455;-80
2021/10/05 01:31:57;;;;;;;12.60;9.97;;;;;;;12.52;75.63;95523.66;5073346;28;20815;-79
2021/10/05 01:34:25;;;;;;;11.80;9.10;;;;;;;12.51;75.50;95520.19;5054407;28;20525;-79
2021/10/05 01:36:54;;;;;;;11.90;10.20;;;;;;;12.38;76.16;95519.50;5073554;28;20887;-79
2021/10/05 01:39:24;;;;;;;10.83;9.83;;;;;;;12.47;76.24;95520.56;5072596;28;20487;-80
2021/10/05 01:41:52;;;;;;;12.60;10.30;;;;;;;12.40;75.71;95523.69;5073015;28;20803;-79
2021/10/05 01:44:19;;;;;;;14.33;10.73;;;;;;;12.37;75.61;95523.94;5073212;28;20863;-79
2021/10/05 01:46:48;;;;;;;12.27;10.73;;;;;;;12.20;75.81;95526.28;5072907;28;20449;-79
2021/10/05 01:49:16;;;;;;;16.57;10.10;;;;;;;12.25;76.78;95527.59;5072794;28;20445;-80
2021/10/05 01:51:44;;;;;;;11.03;8.97;;;;;;;12.35;76.46;95530.28;5073179;28;20464;-80
2021/10/05 01:54:12;;;;;;;15.63;10.60;;;;;;;12.34;75.72;95534.72;5072913;28;20445;-80
2021/10/05 01:56:40;;;;;;;13.40;9.67;;;;;;;12.32;76.17;95539.28;5072664;28;20484;-80
2021/10/05 01:59:07;;;;;;;11.40;10.30;;;;;;;12.29;76.20;95529.00;5072675;28;20488;-80
2021/10/05 02:01:34;;;;;;;14.60;10.67;;;;;;;12.37;75.69;95534.47;5072978;28;20923;-79
2021/10/05 02:04:01;;;;;;;12.20;10.90;;;;;;;12.21;76.25;95536.69;5073115;28;20482;-80
2021/10/05 02:06:28;;;;;;;15.37;11.10;;;;;;;12.08;77.10;95533.34;5053722;28;20430;-80
2021/10/05 02:08:55;;;;;;;15.33;11.60;;;;;;;12.06;76.18;95540.53;5072848;28;20441;-80
2021/10/05 02:11:22;;;;;;;14.60;11.07;;;;;;;12.02;76.58;95534.69;5072499;28;20448;-80
2021/10/05 02:13:50;;;;;;;13.27;10.80;;;;;;;12.06;76.48;95540.53;5037374;28;20933;-80
2021/10/05 02:16:17;;;;;;;15.70;11.47;;;;;;;12.03;76.08;95535.53;5037616;28;20459;-80
2021/10/05 02:18:46;;;;;;;15.50;11.37;;;;;;;12.06;76.52;95535.28;5037194;28;21053;-80
2021/10/05 02:21:13;;;;;;;14.50;11.30;;;;;;;12.07;76.39;95534.31;5072906;28;20506;-80
2021/10/05 02:26:21;;;;;;;16.97;10.90;;;;;;;12.13;76.07;95535.63;5072200;28;20494;-80
2021/10/05 02:28:48;;;;;;;12.67;11.07;;;;;;;12.08;75.81;95536.00;5072135;28;20452;-80
2021/10/05 02:31:16;;;;;;;13.80;11.30;;;;;;;11.93;75.65;95534.59;5072890;28;20437;-80
2021/10/05 02:33:43;;;;;;;16.53;11.17;;;;;;;11.76;76.46;95538.53;5072179;28;20451;-79
2021/10/05 02:36:10;;;;;;;16.57;11.67;;;;;;;11.65;77.22;95531.50;5072298;28;20449;-79
2021/10/05 02:38:37;;;;;;;16.37;11.10;;;;;;;11.70;77.48;95542.47;5072172;28;20453;-80
2021/10/05 02:41:04;;;;;;;14.40;11.00;;;;;;;11.72;76.91;95539.72;5072087;28;20457;-80
2021/10/05 02:43:32;;;;;;;15.50;11.00;;;;;;;11.74;76.89;95538.66;5072427;28;20531;-80
2021/10/05 02:45:59;;;;;;;13.33;11.70;;;;;;;11.76;76.95;95536.72;5072374;28;20540;-79
2021/10/05 02:48:27;;;;;;;12.07;10.83;;;;;;;11.76;76.43;95538.53;5072456;28;20445;-79
2021/10/05 02:50:54;;;;;;;13.07;10.63;;;;;;;11.76;77.12;95534.09;5036352;28;20454;-80
2021/10/05 02:53:21;;;;;;;16.70;12.00;;;;;;;11.79;77.13;95530.41;5071839;28;20452;-79
2021/10/05 02:55:49;;;;;;;18.30;12.03;;;;;;;11.77;77.26;95529.69;5072014;28;20476;-80
2021/10/05 02:58:17;;;;;;;12.10;10.90;;;;;;;11.81;76.94;95530.28;5072360;28;20440;-80
2021/10/05 03:00:44;;;;;;;11.13;10.03;;;;;;;11.82;76.85;95532.81;5071791;28;20485;-80
2021/10/05 03:03:11;;;;;;;18.73;10.83;;;;;;;11.86;77.39;95529.00;5071868;28;20449;-80
2021/10/05 03:05:40;;;;;;;18.80;11.03;;;;;;;11.88;76.79;95534.97;5071721;28;20528;-80
2021/10/05 03:08:08;;;;;;;11.93;9.17;;;;;;;11.91;76.63;95531.25;5069757;28;20441;-80
2021/10/05 03:10:35;;;;;;;14.40;10.47;;;;;;;11.91;76.81;95526.00;5071995;28;20819;-80
2021/10/05 03:13:02;;;;;;;13.83;10.87;;;;;;;11.94;76.95;95528.38;5071680;28;20933;-80
2021/10/05 03:15:29;;;;;;;14.00;10.40;;;;;;;11.93;77.17;95530.19;5072031;28;20441;-79
2021/10/05 03:17:56;;;;;;;12.63;11.37;;;;;;;11.94;77.39;95536.28;5071812;28;20437;-80
2021/10/05 03:20:23;;;;;;;15.33;10.40;;;;;;;11.93;77.25;95539.88;5071775;28;20497;-80
2021/10/05 03:22:51;;;;;;;14.73;10.40;;;;;;;11.91;78.29;95540.00;5071504;28;20814;-80
2021/10/05 03:25:18;;;;;;;12.63;10.50;;;;;;;11.89;78.35;95541.06;5072149;28;20445;-79
2021/10/05 03:27:45;;;;;;;11.97;10.00;;;;;;;11.85;78.86;95542.25;5070163;28;20488;-79
2021/10/05 03:30:13;;;;;;;19.70;10.40;;;;;;;11.85;78.87;95543.06;5071793;28;20452;-79
2021/10/05 03:32:40;;;;;;;15.33;11.23;;;;;;;11.87;77.92;95546.44;5072109;28;20879;-79
2021/10/05 03:35:08;;;;;;;16.63;9.83;;;;;;;11.89;78.34;95543.69;5071748;28;20443;-80
2021/10/05 03:37:35;;;;;;;10.03;9.13;;;;;;;11.88;78.20;95545.50;5037043;28;20450;-78
2021/10/05 03:40:04;;;;;;;10.53;9.43;;;;;;;11.91;77.74;95542.63;5072784;28;20483;-79
2021/10/05 03:42:32;;;;;;;15.50;9.63;;;;;;;11.91;76.97;95547.88;5020790;28;20440;-80
2021/10/05 03:44:59;;;;;;;12.70;11.30;;;;;;;11.84;77.73;95548.47;5072385;28;20449;-79
2021/10/05 03:47:28;;;;;;;13.47;12.10;;;;;;;11.84;78.22;95551.09;5072471;28;20456;-79
2021/10/05 03:49:55;;;;;;;12.57;10.70;;;;;;;11.86;77.59;95557.94;5038088;28;20452;-79
2021/10/05 03:52:22;;;;;;;12.77;11.03;;;;;;;11.80;78.61;95555.75;5072320;28;20931;-79
2021/10/05 03:54:49;;;;;;;13.00;10.70;;;;;;;11.80;78.50;95561.00;5072180;28;20449;-80
2021/10/05 03:57:18;;;;;;;14.00;11.70;;;;;;;11.95;78.26;95564.25;5071664;28;20452;-80
2021/10/05 03:59:46;;;;;;;14.90;10.17;;;;;;;11.98;78.34;95558.72;5072515;28;20527;-84
2021/10/05 04:02:12;;;;;;;12.90;9.60;;;;;;;11.95;77.42;95559.81;5072379;28;20979;-80
2021/10/05 04:04:39;;;;;;;15.63;10.30;;;;;;;11.88;78.09;95563.06;5040501;28;20448;-79
2021/10/05 04:07:06;;;;;;;13.20;10.43;;;;;;;11.88;77.52;95561.28;5076507;28;20782;-79
2021/10/05 04:09:33;;;;;;;16.67;11.30;;;;;;;11.84;79.04;95566.88;5041064;28;20461;-79
2021/10/05 04:12:00;;;;;;;12.87;10.67;;;;;;;11.85;78.21;95563.28;5075824;28;20452;-79
2021/10/05 04:14:29;;;;;;;19.00;15.37;;;;;;;11.82;78.33;95568.78;5076548;28;20977;-80
2021/10/05 04:16:56;;;;;;;22.90;20.70;;;;;;;11.83;78.12;95573.09;5057111;28;20441;-78
2021/10/05 04:19:23;;;;;;;38.50;34.63;;;;;;;11.83;78.79;95565.19;5076022;28;20491;-79
2021/10/05 04:21:50;;;;;;;41.60;35.00;;;;;;;11.83;78.19;95568.66;5056903;28;20925;-79
2021/10/05 04:24:17;;;;;;;55.00;49.20;;;;;;;11.79;78.89;95575.13;5078547;28;20438;-79
2021/10/05 04:26:44;;;;;;;47.63;42.40;;;;;;;11.77;78.18;95575.22;5073649;28;20550;-78
2021/10/05 04:29:11;;;;;;;53.70;38.73;;;;;;;11.72;79.59;95585.25;5074554;28;20445;-78
2021/10/05 04:31:41;;;;;;;35.53;30.37;;;;;;;11.68;78.66;95583.84;5075215;28;20780;-78
2021/10/05 04:34:08;;;;;;;24.40;21.80;;;;;;;11.64;80.51;95581.56;5075070;28;20506;-78
2021/10/05 04:36:35;;;;;;;23.80;20.07;;;;;;;11.60;79.49;95573.09;5056505;28;20444;-79
2021/10/05 04:39:02;;;;;;;16.80;11.67;;;;;;;11.57;79.42;95583.84;5075323;28;20451;-78
2021/10/05 04:41:29;;;;;;;16.63;11.53;;;;;;;11.54;79.23;95581.41;5075210;28;20468;-78
2021/10/05 04:43:56;;;;;;;13.63;11.40;;;;;;;11.52;79.60;95588.59;5074890;28;20442;-79
2021/10/05 04:46:23;;;;;;;16.50;13.70;;;;;;;11.51;80.54;95592.19;5056570;28;20452;-78
2021/10/05 04:48:51;;;;;;;16.40;12.30;;;;;;;11.49;79.42;95591.47;5075119;28;20524;-78
2021/10/05 04:51:18;;;;;;;21.00;13.07;;;;;;;11.46;79.86;95594.31;5074974;28;21004;-79
2021/10/05 04:53:45;;;;;;;19.87;13.07;;;;;;;11.42;80.34;95599.00;5039601;28;20524;-78
2021/10/05 04:56:12;;;;;;;25.10;12.60;;;;;;;11.45;80.52;95603.16;5074980;28;20479;-78
2021/10/05 04:58:39;;;;;;;14.33;11.47;;;;;;;11.45;79.73;95596.13;5075037;28;20437;-79
2021/10/05 05:01:06;;;;;;;16.23;12.80;;;;;;;11.46;81.57;95599.59;5074686;28;20487;-79
2021/10/05 05:03:33;;;;;;;21.30;13.07;;;;;;;11.45;84.27;95604.00;5039757;28;20451;-80
2021/10/05 05:06:01;;;;;;;18.23;12.13;;;;;;;11.58;87.43;95609.16;5075121;28;20811;-79
2021/10/05 05:08:28;;;;;;;16.20;12.40;;;;;;;11.69;85.02;95617.06;5074780;28;20449;-80
2021/10/05 05:10:55;;;;;;;20.80;12.90;;;;;;;12.19;90.26;95614.91;5075346;28;20527;-79
2021/10/05 05:13:22;;;;;;;14.63;11.50;;;;;;;13.10;83.03;95618.91;5074604;28;20436;-79
2021/10/05 05:15:49;;;;;;;18.10;11.43;;;;;;;13.75;76.49;95623.09;5074797;28;20521;-81
2021/10/05 05:18:16;;;;;;;11.90;9.37;;;;;;;14.54;73.56;95621.47;5072423;28;20442;-79
2021/10/05 05:20:43;;;;;;;11.80;9.20;;;;;;;15.01;71.89;95626.91;5074251;28;20481;-79
2021/10/05 05:23:11;;;;;;;10.10;9.10;;;;;;;15.45;66.56;95618.41;5055686;28;20535;-79
2021/10/05 05:25:38;;;;;;;14.23;9.17;;;;;;;16.10;64.19;95624.66;5074509;28;20444;-80
2021/10/05 05:28:05;;;;;;;10.97;8.77;;;;;;;16.65;62.57;95616.69;5055648;28;20830;-79
2021/10/05 05:30:33;;;;;;;11.10;8.93;;;;;;;17.12;60.17;95615.69;5074458;28;20453;-79
2021/10/05 05:33:00;;;;;;;17.23;10.90;;;;;;;17.12;57.49;95616.53;5038877;28;20455;-79
2021/10/05 05:35:26;;;;;;;15.47;10.97;;;;;;;16.73;58.17;95619.44;5039194;28;20451;-79
2021/10/05 05:37:54;;;;;;;18.10;12.63;;;;;;;16.96;58.81;95622.50;5073946;28;20447;-79
2021/10/05 05:40:22;;;;;;;14.70;12.33;;;;;;;16.93;58.52;95614.03;5074291;28;20479;-79
2021/10/05 05:42:49;;;;;;;16.03;12.27;;;;;;;17.18;58.54;95618.56;5073096;28;20445;-79
2021/10/05 05:45:16;;;;;;;22.83;10.97;;;;;;;17.14;57.17;95625.16;5073550;28;20433;-79
2021/10/05 05:47:43;;;;;;;14.70;10.57;;;;;;;17.28;56.55;95624.63;5073150;28;20449;-79
2021/10/05 05:50:11;;;;;;;16.37;11.20;;;;;;;17.38;57.71;95631.66;5072935;28;20808;-79
2021/10/05 05:52:38;;;;;;;17.53;11.20;;;;;;;17.40;56.88;95635.00;5072649;28;20448;-79
2021/10/05 05:55:06;;;;;;;20.10;12.43;;;;;;;17.32;57.40;95633.09;5037345;28;20485;-77
2021/10/05 05:57:34;;;;;;;15.47;11.57;;;;;;;17.02;57.91;95636.97;5072809;28;20441;-80
2021/10/05 06:00:01;;;;;;;22.07;11.23;;;;;;;16.80;59.28;95634.78;5072695;28;20481;-79
2021/10/05 06:02:28;;;;;;;24.17;12.93;;;;;;;16.36;60.00;95626.63;5072861;28;20449;-79
2021/10/05 06:04:55;;;;;;;27.00;14.93;;;;;;;16.24;60.63;95636.59;5072570;28;20467;-79
2021/10/05 06:07:22;;;;;;;21.63;13.37;;;;;;;16.43;61.44;95635.63;5072689;28;20460;-77
2021/10/05 06:09:48;;;;;;;23.37;15.50;;;;;;;16.31;60.79;95636.81;5072899;28;20784;-77
2021/10/05 06:12:19;;;;;;;24.77;16.03;;;;;;;15.68;63.13;95634.81;5037297;28;20531;-77
2021/10/05 06:14:48;;;;;;;24.00;16.57;;;;;;;15.93;63.36;95629.88;5072400;28;20459;-77
2021/10/05 06:17:15;;;;;;;20.87;15.20;;;;;;;16.20;63.05;95629.91;5037336;28;20453;-79
2021/10/05 06:19:42;;;;;;;15.60;13.10;;;;;;;16.71;62.27;95637.31;5037339;28;20449;-78
2021/10/05 06:22:09;;;;;;;19.30;14.10;;;;;;;16.98;60.99;95638.25;5072639;28;20452;-78
2021/10/05 06:24:36;;;;;;;16.53;13.53;;;;;;;16.92;60.41;95636.22;5072443;28;20528;-78
2021/10/05 06:27:03;;;;;;;28.10;14.53;;;;;;;17.22;60.28;95633.19;5071863;28;20820;-78
2021/10/05 06:29:30;;;;;;;18.77;14.60;;;;;;;17.20;58.67;95634.31;5053448;28;20447;-78
2021/10/05 06:31:58;;;;;;;19.90;13.33;;;;;;;17.25;58.13;95632.88;5072148;28;20452;-78
2021/10/05 06:34:26;;;;;;;24.00;15.20;;;;;;;16.82;59.43;95638.09;5037106;28;20479;-79
2021/10/05 06:36:53;;;;;;;20.83;13.77;;;;;;;16.78;60.84;95639.41;5071965;28;20449;-78
2021/10/05 06:39:20;;;;;;;27.90;15.07;;;;;;;16.50;60.94;95650.00;5072235;28;20447;-78
2021/10/05 06:41:47;;;;;;;18.70;14.23;;;;;;;16.78;61.63;95640.22;5071936;28;20506;-79
2021/10/05 06:44:14;;;;;;;23.10;14.00;;;;;;;16.94;60.53;95642.19;5072106;28;20456;-78
2021/10/05 06:46:42;;;;;;;18.87;13.20;;;;;;;17.20;60.19;95639.63;5053290;28;20476;-78
2021/10/05 06:49:10;;;;;;;19.93;13.97;;;;;;;17.16;60.38;95635.63;5072618;28;20452;-78
2021/10/05 06:51:37;;;;;;;16.47;13.47;;;;;;;17.07;59.15;95645.34;5072042;28;20449;-79
2021/10/05 06:54:04;;;;;;;18.90;13.97;;;;;;;17.00;61.14;95638.94;5071981;28;20959;-78
2021/10/05 06:56:31;;;;;;;17.40;13.13;;;;;;;17.42;59.55;95639.16;5052777;28;20495;-78
2021/10/05 06:58:58;;;;;;;22.20;13.53;;;;;;;17.45;59.13;95633.56;5072006;28;20520;-78
2021/10/05 07:01:25;;;;;;;19.07;12.37;;;;;;;17.70;59.42;95625.81;5071730;28;20490;-78
2021/10/05 07:03:52;;;;;;;16.27;11.60;;;;;;;17.57;58.14;95626.16;5072130;28;20445;-78
2021/10/05 07:06:22;;;;;;;19.53;13.03;;;;;;;17.93;57.79;95613.69;5071659;28;20945;-78
2021/10/05 07:08:49;;;;;;;17.40;11.37;;;;;;;18.14;56.78;95614.09;5071905;28;20437;-78
2021/10/05 07:11:15;;;;;;;21.17;11.83;;;;;;;18.20;57.11;95616.13;5071722;28;20481;-78
2021/10/05 07:13:43;;;;;;;14.77;11.00;;;;;;;17.97;55.85;95617.69;5071601;28;20531;-78
2021/10/05 07:16:10;;;;;;;14.97;11.10;;;;;;;17.87;56.15;95617.78;5071967;28;20473;-78
2021/10/05 07:18:37;;;;;;;13.37;11.90;;;;;;;17.74;57.69;95613.88;5072232;28;20441;-78
2021/10/05 07:21:04;;;;;;;17.57;11.07;;;;;;;17.53;58.22;95606.22;5071636;28;21014;-79
2021/10/05 07:23:33;;;;;;;15.40;10.27;;;;;;;17.71;58.39;95599.09;5071859;28;20455;-79
2021/10/05 07:26:00;;;;;;;11.63;10.43;;;;;;;17.79;57.74;95607.09;5071681;28;20455;-78
2021/10/05 07:28:27;;;;;;;12.33;11.10;;;;;;;18.08;56.89;95603.28;5071633;28;20451;-79
2021/10/05 07:30:54;;;;;;;11.23;10.03;;;;;;;18.33;55.75;95612.19;5071808;28;20448;-79
2021/10/05 07:33:23;;;;;;;17.03;10.00;;;;;;;18.54;55.78;95612.63;5071829;28;20449;-78
2021/10/05 07:35:50;;;;;;;14.93;10.73;;;;;;;18.69;55.54;95607.53;5071576;28;20449;-78
2021/10/05 07:38:17;;;;;;;17.03;11.30;;;;;;;18.79;55.54;95609.06;5072536;28;20449;-78
2021/10/05 07:40:45;;;;;;;16.17;11.63;;;;;;;18.88;54.91;95602.78;5075154;28;20481;-78
2021/10/05 07:43:12;;;;;;;14.53;12.63;;;;;;;18.98;54.46;95607.94;5075726;28;20532;-78
2021/10/05 07:45:39;;;;;;;16.53;11.40;;;;;;;19.07;54.68;95606.09;5075360;28;20536;-78
2021/10/05 07:48:07;;;;;;;14.60;10.93;;;;;;;19.15;54.13;95606.97;5075252;28;20477;-79
2021/10/05 07:50:35;;;;;;;11.73;9.57;;;;;;;18.86;53.58;95604.75;5075123;28;20452;-79
2021/10/05 07:53:03;;;;;;;16.33;10.87;;;;;;;18.98;54.68;95605.28;5075273;28;20524;-78
2021/10/05 07:55:31;;;;;;;15.60;10.27;;;;;;;19.23;55.03;95599.97;4990498;28;20851;-79
2021/10/05 07:58:01;;;;;;;11.10;8.93;;;;;;;19.15;53.78;95598.97;5075245;28;20507;-78
2021/10/05 08:00:28;;;;;;;9.83;7.83;;;;;;;19.24;53.66;95591.81;5074857;28;20976;-79
2021/10/05 08:02:57;;;;;;;23.53;9.93;;;;;;;19.19;53.86;95587.00;5075294;28;20455;-78
2021/10/05 08:05:24;;;;;;;11.60;8.10;;;;;;;19.45;54.23;95597.50;5074979;28;20445;-78
2021/10/05 08:07:57;;;;;;;10.37;8.77;;;;;;;19.39;53.33;95597.31;5074752;28;20473;-78
2021/10/05 08:10:24;;;;;;;10.37;9.23;;;;;;;19.35;53.35;95598.63;5075417;28;20437;-79
2021/10/05 08:12:51;;;;;;;14.03;9.97;;;;;;;19.45;52.89;95594.00;5074725;28;20444;-78
2021/10/05 08:15:20;;;;;;;11.90;10.37;;;;;;;19.49;53.37;95590.81;5075067;28;20443;-78
2021/10/05 08:17:47;;;;;;;12.87;9.60;;;;;;;19.46;54.25;95593.00;5074693;28;20468;-79
2021/10/05 08:20:14;;;;;;;13.80;9.87;;;;;;;19.58;54.09;95593.50;5074920;28;20449;-79
2021/10/05 08:22:41;;;;;;;14.40;9.80;;;;;;;19.41;53.57;95592.66;5074702;28;20448;-78
2021/10/05 08:25:09;;;;;;;12.30;9.67;;;;;;;19.27;54.14;95598.63;5074742;28;20452;-78
2021/10/05 08:27:36;;;;;;;14.63;9.73;;;;;;;19.50;54.07;95592.50;5074630;28;20859;-79
2021/10/05 08:30:03;;;;;;;14.00;11.20;;;;;;;19.58;53.58;95585.50;5074567;28;20447;-79
2021/10/05 08:32:31;;;;;;;9.03;8.13;;;;;;;19.84;53.16;95595.97;5074478;28;20456;-79
2021/10/05 08:34:58;;;;;;;11.53;9.30;;;;;;;20.13;51.54;95596.22;5074493;28;20453;-79
2021/10/05 08:37:25;;;;;;;19.77;9.80;;;;;;;20.28;52.05;95593.69;5074331;28;20475;-79
2021/10/05 08:39:52;;;;;;;12.37;9.63;;;;;;;20.34;51.88;95596.50;5074539;28;20446;-79
2021/10/05 08:42:22;;;;;;;16.93;10.37;;;;;;;20.18;52.71;95585.03;5074380;28;20489;-79
2021/10/05 08:44:49;;;;;;;13.67;9.77;;;;;;;20.09;52.52;95576.25;5074220;28;20441;-79
2021/10/05 08:47:17;;;;;;;15.73;10.93;;;;;;;20.24;53.01;95584.34;5074050;28;20987;-79
2021/10/05 08:49:46;;;;;;;10.40;9.30;;;;;;;20.02;51.96;95586.78;5073736;28;20536;-78
2021/10/05 08:52:14;;;;;;;13.80;10.03;;;;;;;19.80;52.69;95590.97;5074373;28;20440;-79
2021/10/05 08:54:42;;;;;;;15.27;9.40;;;;;;;20.01;53.19;95589.59;5074036;28;20442;-78
2021/10/05 08:57:09;;;;;;;15.50;10.13;;;;;;;20.27;53.06;95589.38;5054991;28;20922;-79
2021/10/05 08:59:36;;;;;;;25.13;10.17;;;;;;;20.41;52.80;95573.50;5073813;28;20441;-78
2021/10/05 09:02:12;;;;;;;12.60;8.60;;;;;;;20.50;52.19;95568.09;5074084;28;21053;-79
2021/10/05 09:04:39;;;;;;;12.37;10.20;;;;;;;20.48;51.50;95565.63;5073892;28;20456;-79
2021/10/05 09:07:18;;;;;;;9.40;8.50;;;;;;;20.63;51.66;95571.88;5074210;28;20451;-79
2021/10/05 09:09:56;;;;;;;11.53;8.53;;;;;;;20.34;51.40;95561.00;5073840;28;20449;-79
2021/10/05 09:12:25;;;;;;;19.33;8.83;;;;;;;20.28;51.96;95567.88;5073778;28;20978;-79
2021/10/05 09:14:52;;;;;;;10.90;9.20;;;;;;;20.48;51.42;95562.13;5073551;28;20448;-79
2021/10/05 09:17:20;;;;;;;12.37;7.87;;;;;;;20.60;51.85;95558.91;5073879;28;20441;-78
2021/10/05 09:19:48;;;;;;;8.93;7.73;;;;;;;20.80;51.17;95553.94;5073717;28;20846;-79
2021/10/05 09:22:18;;;;;;;11.90;8.00;;;;;;;20.97;51.26;95544.81;5073408;28;20844;-78
2021/10/05 09:24:48;;;;;;;8.77;6.53;;;;;;;21.08;51.54;95546.22;5073296;28;20441;-78
2021/10/05 09:27:15;;;;;;;10.30;6.97;;;;;;;21.06;51.25;95548.25;5073325;28;20441;-79
2021/10/05 09:29:44;;;;;;;12.20;7.23;;;;;;;21.04;51.23;95547.59;5073219;28;20449;-79
2021/10/05 09:32:12;;;;;;;9.73;6.47;;;;;;;21.07;50.73;95541.06;5073280;28;20449;-78
2021/10/05 09:34:42;;;;;;;10.00;6.70;;;;;;;21.21;50.91;95541.13;5073332;28;20442;-79
2021/10/05 09:37:12;;;;;;;10.47;5.80;;;;;;;21.15;50.56;95535.69;5073235;28;20473;-79
2021/10/05 09:39:45;;;;;;;7.57;5.77;;;;;;;21.17;50.52;95544.34;5073115;28;20812;-79
2021/10/05 09:42:19;;;;;;;12.07;6.57;;;;;;;20.93;50.83;95532.84;5072992;28;20575;-79
2021/10/05 09:44:51;;;;;;;7.37;5.03;;;;;;;21.00;51.60;95532.97;5072960;28;20445;-79
2021/10/05 09:47:18;;;;;;;5.70;5.20;;;;;;;20.79;50.54;95530.94;5072886;28;20929;-79
2021/10/05 09:49:46;;;;;;;9.03;5.40;;;;;;;20.60;51.19;95537.56;5072854;28;20448;-78
2021/10/05 09:52:13;;;;;;;6.30;5.50;;;;;;;20.81;51.44;95526.25;5072952;28;20437;-79
2021/10/05 09:54:42;;;;;;;6.53;5.80;;;;;;;20.89;52.62;95528.06;5037582;28;20444;-79
2021/10/05 09:57:10;;;;;;;6.60;5.90;;;;;;;20.99;53.21;95529.47;5073170;28;20680;-79
2021/10/05 09:59:37;;;;;;;7.57;5.93;;;;;;;21.16;52.05;95526.69;5072696;28;20441;-79
2021/10/05 10:02:04;;;;;;;7.50;5.20;;;;;;;21.25;48.98;95531.78;5071873;28;20859;-79
2021/10/05 10:04:32;;;;;;;5.60;5.10;;;;;;;20.98;48.10;95527.81;5072567;28;20445;-78
2021/10/05 10:07:01;;;;;;;5.97;5.47;;;;;;;21.12;48.86;95518.19;5072706;28;20941;-79
2021/10/05 10:09:29;;;;;;;6.53;4.70;;;;;;;21.14;47.96;95518.84;5072560;28;20821;-78
2021/10/05 10:12:01;;;;;;;6.93;5.30;;;;;;;20.94;48.83;95518.50;5072442;28;20452;-78
2021/10/05 10:14:28;;;;;;;5.50;4.90;;;;;;;20.67;48.78;95527.84;5072492;28;20445;-78
2021/10/05 10:16:55;;;;;;;8.50;4.93;;;;;;;20.97;48.58;95522.66;5037207;28;20437;-79
2021/10/05 10:19:29;;;;;;;4.90;4.50;;;;;;;21.14;48.50;95518.03;5072356;28;20543;-79
2021/10/05 10:22:05;;;;;;;7.77;4.97;;;;;;;21.30;47.60;95515.22;5072486;28;20492;-78
2021/10/05 10:24:44;;;;;;;9.20;5.37;;;;;;;21.01;48.42;95518.59;5072208;28;20462;-79
2021/10/05 10:27:12;;;;;;;8.13;5.27;;;;;;;20.83;49.49;95515.44;5072275;28;20524;-79
2021/10/05 10:29:41;;;;;;;7.60;5.37;;;;;;;20.99;49.94;95510.78;5072963;28;20477;-78
2021/10/05 10:32:15;;;;;;;5.73;5.20;;;;;;;21.15;50.26;95501.00;5072456;28;20453;-79
2021/10/05 10:34:46;;;;;;;5.17;4.67;;;;;;;21.25;49.02;95493.59;5037611;28;20460;-79
2021/10/05 10:37:15;;;;;;;7.60;5.00;;;;;;;21.34;48.77;95493.31;5071960;28;20445;-79
2021/10/05 10:39:44;;;;;;;7.13;5.10;;;;;;;21.45;47.57;95494.72;5072136;28;20453;-78
2021/10/05 10:42:17;;;;;;;5.27;4.87;;;;;;;21.24;48.13;95498.09;5071810;28;20999;-79
2021/10/05 10:44:44;;;;;;;5.77;5.10;;;;;;;21.40;48.49;95505.13;5072088;28;20875;-79
2021/10/05 10:47:13;;;;;;;8.63;5.23;;;;;;;21.49;49.32;95506.72;5072137;28;20463;-79
2021/10/05 10:49:41;;;;;;;6.23;5.53;;;;;;;21.46;48.07;95501.72;5072043;28;20437;-79
2021/10/05 10:52:08;;;;;;;9.90;4.90;;;;;;;21.40;48.65;95499.78;5072004;28;20441;-78
2021/10/05 10:54:35;;;;;;;8.70;5.17;;;;;;;21.11;47.73;95489.84;5053082;28;20490;-78
2021/10/05 10:57:05;;;;;;;6.80;4.60;;;;;;;21.15;47.43;95490.31;5072217;28;20848;-79
2021/10/05 10:59:34;;;;;;;7.73;5.50;;;;;;;21.21;47.77;95492.25;5072232;28;20441;-79
2021/10/05 11:02:02;;;;;;;5.67;5.17;;;;;;;21.30;48.09;95491.19;5072077;28;20863;-79
2021/10/05 11:04:30;;;;;;;6.23;5.40;;;;;;;21.33;47.92;95490.81;5071809;28;20445;-78
2021/10/05 11:06:58;;;;;;;6.30;5.70;;;;;;;21.34;47.60;95492.50;5071990;28;20455;-79
2021/10/05 11:09:32;;;;;;;6.37;5.70;;;;;;;21.40;47.76;95481.09;5071791;28;20441;-79
2021/10/05 11:12:02;;;;;;;5.77;4.87;;;;;;;21.50;48.91;95475.50;5072545;28;20451;-79
2021/10/05 11:14:32;;;;;;;6.33;5.73;;;;;;;21.59;46.75;95469.03;5075995;28;20452;-78
2021/10/05 11:17:03;;;;;;;9.00;5.50;;;;;;;21.42;47.34;95473.75;5056906;28;20437;-79
2021/10/05 11:19:32;;;;;;;5.97;5.40;;;;;;;21.10;47.74;95479.31;5075647;28;20456;-79
2021/10/05 11:22:03;;;;;;;6.93;6.20;;;;;;;21.14;48.90;95465.47;5075706;28;20488;-80
2021/10/05 11:24:39;;;;;;;8.20;5.33;;;;;;;21.05;47.60;95466.53;5076100;28;20524;-80
2021/10/05 11:27:12;;;;;;;6.53;5.40;;;;;;;21.14;47.39;95467.31;5075614;28;20963;-80
2021/10/05 11:29:39;;;;;;;9.43;5.10;;;;;;;20.99;47.33;95460.06;5075620;28;20452;-80